createdAt,value
2019-06-26T00:02:09.811Z,64.63
2019-06-26T00:04:36.948Z,64.10
2019-06-26T00:07:04.111Z,62.77
2019-06-26T00:09:32.412Z,66.10
2019-06-26T00:12:01.380Z,64.87
2019-06-26T00:14:28.439Z,66.23
2019-06-26T00:16:55.503Z,64.67
2019-06-26T00:19:22.844Z,67.30
2019-06-26T00:21:49.912Z,63.03
2019-06-26T00:24:17.064Z,66.23
2019-06-26T00:26:44.128Z,61.47
2019-06-26T00:29:11.200Z,64.07
2019-06-26T00:31:38.256Z,70.27
2019-06-26T00:34:05.385Z,69.27
2019-06-26T00:36:33.715Z,67.83
2019-06-26T00:39:00.760Z,68.60
2019-06-26T00:41:29.728Z,66.27
2019-06-26T00:43:56.856Z,72.13
2019-06-26T00:46:23.955Z,70.13
2019-06-26T00:48:51.017Z,69.93
2019-06-26T00:51:18.076Z,66.33
2019-06-26T00:53:45.243Z,66.00
2019-06-26T00:56:12.288Z,72.03
2019-06-26T00:58:39.347Z,74.73
2019-06-26T01:01:06.504Z,73.47
2019-06-26T01:03:33.587Z,78.27
2019-06-26T01:06:00.647Z,76.97
2019-06-26T01:08:27.697Z,79.90
2019-06-26T01:10:54.883Z,76.10
2019-06-26T01:13:21.947Z,81.10
2019-06-26T01:15:49.015Z,83.03
2019-06-26T01:18:16.295Z,83.73
2019-06-26T01:20:43.380Z,85.47
2019-06-26T01:23:10.440Z,83.00
2019-06-26T01:25:37.487Z,81.00
2019-06-26T01:28:04.544Z,80.97
2019-06-26T01:30:31.596Z,84.33
2019-06-26T01:32:58.650Z,80.97
2019-06-26T01:35:25.720Z,82.60
2019-06-26T01:37:52.769Z,86.03
2019-06-26T01:40:19.933Z,86.27
2019-06-26T01:42:47.008Z,90.97
2019-06-26T01:45:15.383Z,84.53
2019-06-26T01:47:42.545Z,82.33
2019-06-26T01:50:10.070Z,87.40
2019-06-26T01:52:37.196Z,86.93
2019-06-26T01:55:04.456Z,89.77
2019-06-26T01:57:31.504Z,84.83
2019-06-26T01:59:58.605Z,88.40
2019-06-26T02:02:25.821Z,86.37
2019-06-26T02:04:52.867Z,92.27
2019-06-26T02:07:19.915Z,88.60
2019-06-26T02:09:46.976Z,91.33
2019-06-26T02:12:14.140Z,88.33
2019-06-26T02:14:41.268Z,82.90
2019-06-26T02:17:08.319Z,83.63
2019-06-26T02:19:35.384Z,85.47
2019-06-26T02:22:02.646Z,89.37
2019-06-26T02:24:29.812Z,85.80
2019-06-26T02:26:57.088Z,95.23
2019-06-26T02:29:25.289Z,90.70
2019-06-26T02:31:52.437Z,91.53
2019-06-26T02:34:19.488Z,91.47
2019-06-26T02:36:46.547Z,95.87
2019-06-26T02:39:13.628Z,86.00
2019-06-26T02:41:40.680Z,89.90
2019-06-26T02:44:07.759Z,88.97
2019-06-26T02:46:34.810Z,94.13
2019-06-26T02:49:01.964Z,82.57
2019-06-26T02:51:28.999Z,80.90
2019-06-26T02:53:56.066Z,85.17
2019-06-26T02:56:23.332Z,85.07
2019-06-26T02:58:50.406Z,84.43
2019-06-26T03:01:17.456Z,78.23
2019-06-26T03:03:44.735Z,80.17
2019-06-26T03:06:11.892Z,76.13
2019-06-26T03:08:39.061Z,79.13
2019-06-26T03:11:06.126Z,75.23
2019-06-26T03:13:33.192Z,79.97
2019-06-26T03:16:00.236Z,86.10
2019-06-26T03:18:27.415Z,77.80
2019-06-26T03:20:54.967Z,75.10
2019-06-26T03:23:22.136Z,71.03
2019-06-26T03:25:49.224Z,76.00
2019-06-26T03:28:16.405Z,67.90
2019-06-26T03:30:43.469Z,77.10
2019-06-26T03:33:10.545Z,72.93
2019-06-26T03:35:40.636Z,75.07
2019-06-26T03:38:06.781Z,81.90
2019-06-26T03:40:33.872Z,75.27
2019-06-26T03:43:00.923Z,70.50
2019-06-26T03:45:28.004Z,73.90
2019-06-26T03:47:55.077Z,77.70
2019-06-26T03:50:22.238Z,74.10
2019-06-26T03:52:49.343Z,85.70
2019-06-26T03:55:16.512Z,73.93
2019-06-26T03:57:43.576Z,80.53
2019-06-26T04:00:10.729Z,73.83
2019-06-26T04:02:37.777Z,88.83
2019-06-26T04:05:05.267Z,76.70
2019-06-26T04:07:32.315Z,75.23
2019-06-26T04:10:00.367Z,76.73
2019-06-26T04:12:27.435Z,76.23
2019-06-26T04:14:56.364Z,81.40
2019-06-26T04:17:25.334Z,81.40
2019-06-26T04:19:54.285Z,79.73
2019-06-26T04:22:23.439Z,86.43
2019-06-26T04:24:53.411Z,85.40
2019-06-26T04:27:22.513Z,79.33
2019-06-26T04:29:49.757Z,83.13
2019-06-26T04:32:17.395Z,90.87
2019-06-26T04:34:44.572Z,94.80
2019-06-26T04:37:11.710Z,84.27
2019-06-26T04:39:39.092Z,89.40
2019-06-26T04:42:06.286Z,98.93
2019-06-26T04:44:33.394Z,88.13
2019-06-26T04:47:00.481Z,90.60
2019-06-26T04:49:27.651Z,91.50
2019-06-26T04:51:54.726Z,96.80
2019-06-26T04:54:22.779Z,90.20
2019-06-26T04:56:49.879Z,88.90
2019-06-26T04:59:17.015Z,85.63
2019-06-26T05:01:44.187Z,88.43
2019-06-26T05:04:11.239Z,92.17
2019-06-26T05:06:39.302Z,87.27
2019-06-26T05:09:06.709Z,94.73
2019-06-26T05:11:33.892Z,97.37
2019-06-26T05:14:01.005Z,96.10
2019-06-26T05:16:28.143Z,87.87
2019-06-26T05:18:55.214Z,92.30
2019-06-26T05:21:22.287Z,92.93
2019-06-26T05:23:49.579Z,90.73
2019-06-26T05:26:17.862Z,86.17
2019-06-26T05:28:44.950Z,90.70
2019-06-26T05:31:12.038Z,91.50
2019-06-26T05:33:39.188Z,89.17
2019-06-26T05:36:06.497Z,84.00
2019-06-26T05:38:33.555Z,99.63
2019-06-26T05:41:00.606Z,94.63
2019-06-26T05:43:27.679Z,92.70
2019-06-26T05:45:54.740Z,77.80
2019-06-26T05:48:22.036Z,92.60
2019-06-26T05:50:49.109Z,84.73
2019-06-26T05:53:16.168Z,75.80
2019-06-26T05:55:43.316Z,100.57
2019-06-26T05:58:11.385Z,73.77
2019-06-26T06:00:38.692Z,83.60
2019-06-26T06:03:05.762Z,81.73
2019-06-26T06:05:32.830Z,71.50
2019-06-26T06:07:59.980Z,92.30
2019-06-26T06:10:27.126Z,91.73
2019-06-26T06:12:54.202Z,83.77
2019-06-26T06:15:21.256Z,95.60
2019-06-26T06:17:48.608Z,93.20
2019-06-26T06:20:22.419Z,85.87
2019-06-26T06:22:49.479Z,86.73
2019-06-26T06:25:16.565Z,87.53
2019-06-26T06:27:43.615Z,87.00
2019-06-26T06:30:16.235Z,75.60
2019-06-26T06:32:43.596Z,83.90
2019-06-26T06:35:10.967Z,92.73
2019-06-26T06:37:38.023Z,84.13
2019-06-26T06:40:05.381Z,100.00
2019-06-26T06:42:32.426Z,90.83
2019-06-26T06:45:00.472Z,96.43
2019-06-26T06:47:27.532Z,89.73
2019-06-26T06:49:54.628Z,84.93
2019-06-26T06:52:21.687Z,100.27
2019-06-26T06:54:48.854Z,93.90
2019-06-26T06:57:15.903Z,95.43
2019-06-26T06:59:44.220Z,74.23
2019-06-26T07:02:11.488Z,107.67
2019-06-26T07:04:38.551Z,88.43
2019-06-26T07:07:05.741Z,90.90
2019-06-26T07:09:32.958Z,90.33
2019-06-26T07:12:00.223Z,107.07
2019-06-26T07:14:27.275Z,99.57
2019-06-26T07:16:54.788Z,111.90
2019-06-26T07:19:21.884Z,107.40
2019-06-26T07:21:48.943Z,110.87
2019-06-26T07:24:16.004Z,107.40
2019-06-26T07:26:43.055Z,105.43
2019-06-26T07:29:10.115Z,110.43
2019-06-26T07:31:38.586Z,98.93
2019-06-26T07:34:05.735Z,102.43
2019-06-26T07:36:34.040Z,98.73
2019-06-26T07:39:01.131Z,96.83
2019-06-26T07:41:28.390Z,92.40
2019-06-26T07:43:55.430Z,100.00
2019-06-26T07:46:22.498Z,95.00
2019-06-26T07:48:49.557Z,98.13
2019-06-26T07:51:16.616Z,95.43
2019-06-26T07:53:43.684Z,95.43
2019-06-26T07:56:10.755Z,92.13
2019-06-26T07:58:37.807Z,96.47
2019-06-26T08:01:04.894Z,92.33
2019-06-26T08:03:31.959Z,101.33
2019-06-26T08:05:59.024Z,100.47
2019-06-26T08:08:28.248Z,88.93
2019-06-26T08:10:55.289Z,105.77
2019-06-26T08:13:22.598Z,98.23
2019-06-26T08:15:49.668Z,92.80
2019-06-26T08:18:16.719Z,94.00
2019-06-26T08:21:00.455Z,94.97
2019-06-26T08:23:13.031Z,103.47
2019-06-26T08:25:40.083Z,105.17
2019-06-26T08:28:07.348Z,93.50
2019-06-26T08:30:34.409Z,91.33
2019-06-26T08:33:01.499Z,90.90
2019-06-26T08:35:28.564Z,98.23
2019-06-26T08:38:09.692Z,103.03
2019-06-26T08:40:24.574Z,103.80
2019-06-26T08:42:51.882Z,104.13
2019-06-26T08:45:19.051Z,94.07
2019-06-26T08:47:46.127Z,94.03
2019-06-26T08:50:13.699Z,96.67
2019-06-26T08:52:40.851Z,91.37
2019-06-26T08:55:08.415Z,86.27
2019-06-26T08:57:35.554Z,88.80
2019-06-26T09:00:03.354Z,88.90
2019-06-26T09:02:31.404Z,95.30
2019-06-26T09:04:58.471Z,84.23
2019-06-26T09:07:25.739Z,75.37
2019-06-26T09:09:52.789Z,76.97
2019-06-26T09:12:20.172Z,77.00
2019-06-26T09:14:47.256Z,76.23
2019-06-26T09:17:15.397Z,76.07
2019-06-26T09:19:42.490Z,72.83
2019-06-26T09:22:09.679Z,65.37
2019-06-26T09:24:36.843Z,63.97
2019-06-26T09:27:04.087Z,65.50
2019-06-26T09:29:31.164Z,64.10
2019-06-26T09:31:58.240Z,64.40
2019-06-26T09:34:25.287Z,63.50
2019-06-26T09:36:52.338Z,59.00
2019-06-26T09:39:19.407Z,56.43
2019-06-26T09:41:46.568Z,60.93
2019-06-26T09:44:13.653Z,63.77
2019-06-26T09:46:40.787Z,59.30
2019-06-26T09:49:07.935Z,52.67
2019-06-26T09:51:34.983Z,53.30
2019-06-26T09:54:02.059Z,49.37
2019-06-26T09:56:29.187Z,47.60
2019-06-26T09:58:56.574Z,49.33
2019-06-26T10:01:23.743Z,45.93
2019-06-26T10:03:50.803Z,51.20
2019-06-26T10:06:17.867Z,42.27
2019-06-26T10:08:44.926Z,43.07
2019-06-26T10:11:12.030Z,48.57
2019-06-26T10:13:39.103Z,41.20
2019-06-26T10:16:06.171Z,44.20
2019-06-26T10:18:33.271Z,48.07
2019-06-26T10:21:00.412Z,44.27
2019-06-26T10:23:27.473Z,39.53
2019-06-26T10:25:54.522Z,42.13
2019-06-26T10:28:21.580Z,38.60
2019-06-26T10:30:48.738Z,35.77
2019-06-26T10:33:15.981Z,36.80
2019-06-26T10:35:43.166Z,42.37
2019-06-26T10:38:10.236Z,36.97
2019-06-26T10:40:37.287Z,36.27
2019-06-26T10:43:04.461Z,34.50
2019-06-26T10:45:31.731Z,38.87
2019-06-26T10:47:59.391Z,32.50
2019-06-26T10:50:26.455Z,35.97
2019-06-26T10:52:53.503Z,36.43
2019-06-26T10:55:20.997Z,41.90
2019-06-26T10:57:48.391Z,36.97
2019-06-26T11:00:17.802Z,41.17
2019-06-26T11:02:44.903Z,39.80
2019-06-26T11:05:12.164Z,34.57
2019-06-26T11:07:39.332Z,44.60
2019-06-26T11:10:06.824Z,36.53
2019-06-26T11:12:33.928Z,39.60
2019-06-26T11:15:01.059Z,38.40
2019-06-26T11:17:28.119Z,40.27
2019-06-26T11:19:55.737Z,38.00
2019-06-26T11:22:22.870Z,41.30
2019-06-26T11:24:49.986Z,45.50
2019-06-26T11:27:17.099Z,41.80
2019-06-26T11:29:44.547Z,38.60
2019-06-26T11:32:11.624Z,40.27
2019-06-26T11:34:39.679Z,38.53
2019-06-26T11:37:06.754Z,40.07
2019-06-26T11:39:33.905Z,40.00
2019-06-26T11:42:01.065Z,44.03
2019-06-26T11:44:29.232Z,42.83
2019-06-26T11:46:56.304Z,43.27
2019-06-26T11:49:23.452Z,43.57
2019-06-26T11:51:50.511Z,41.57
2019-06-26T11:54:17.665Z,45.43
2019-06-26T11:56:44.746Z,47.93
2019-06-26T11:59:11.803Z,45.30
2019-06-26T12:01:38.849Z,50.43
2019-06-26T12:04:06.118Z,44.47
2019-06-26T12:06:33.278Z,53.23
2019-06-26T12:09:01.349Z,51.50
2019-06-26T12:11:28.533Z,52.87
2019-06-26T12:13:55.583Z,47.30
2019-06-26T12:16:23.276Z,53.40
2019-06-26T12:18:50.419Z,57.13
2019-06-26T12:21:17.476Z,56.47
2019-06-26T12:23:44.535Z,53.23
2019-06-26T12:26:11.832Z,55.23
2019-06-26T12:28:39.012Z,53.87
2019-06-26T12:31:06.074Z,54.97
2019-06-26T12:33:33.129Z,53.27
2019-06-26T12:36:00.243Z,46.43
2019-06-26T12:38:27.383Z,55.10
2019-06-26T12:40:54.797Z,49.60
2019-06-26T12:43:21.942Z,44.77
2019-06-26T12:45:50.108Z,50.90
2019-06-26T12:48:17.183Z,50.57
2019-06-26T12:50:44.471Z,45.57
2019-06-26T12:53:11.515Z,43.20
2019-06-26T12:55:38.683Z,41.73
2019-06-26T12:58:13.135Z,47.40
2019-06-26T13:00:34.715Z,41.40
2019-06-26T13:03:01.780Z,41.27
2019-06-26T13:05:28.963Z,44.23
2019-06-26T13:07:56.020Z,39.63
2019-06-26T13:10:23.159Z,39.33
2019-06-26T13:12:50.214Z,41.93
2019-06-26T13:15:17.687Z,42.60
2019-06-26T13:17:44.756Z,36.40
2019-06-26T13:20:12.876Z,36.03
2019-06-26T13:22:40.017Z,37.00
2019-06-26T13:25:07.445Z,38.07
2019-06-26T13:27:34.516Z,36.00
2019-06-26T13:30:01.736Z,30.57
2019-06-26T13:32:29.797Z,34.10
2019-06-26T13:34:56.839Z,35.57
2019-06-26T13:37:23.896Z,30.93
2019-06-26T13:39:50.974Z,33.77
2019-06-26T13:42:18.031Z,27.97
2019-06-26T13:44:46.331Z,26.73
2019-06-26T13:47:13.399Z,27.50
2019-06-26T13:49:40.467Z,26.53
2019-06-26T13:52:07.519Z,28.07
2019-06-26T13:54:34.589Z,28.57
2019-06-26T13:57:01.656Z,24.60
2019-06-26T13:59:28.952Z,27.73
2019-06-26T14:01:56.015Z,25.33
2019-06-26T14:04:23.084Z,26.20
2019-06-26T14:06:50.127Z,27.50
2019-06-26T14:09:17.187Z,24.67
2019-06-26T14:11:44.251Z,23.47
2019-06-26T14:14:11.309Z,21.37
2019-06-26T14:16:38.368Z,21.00
2019-06-26T14:19:05.546Z,20.17
2019-06-26T14:21:32.707Z,21.63
2019-06-26T14:23:59.771Z,16.87
2019-06-26T14:26:26.837Z,16.70
2019-06-26T14:28:54.188Z,16.33
2019-06-26T14:31:21.389Z,15.67
2019-06-26T14:33:48.435Z,14.30
2019-06-26T14:36:15.493Z,18.37
2019-06-26T14:38:42.656Z,17.03
2019-06-26T14:41:09.716Z,20.43
2019-06-26T14:43:36.776Z,16.87
2019-06-26T14:46:03.939Z,18.73
2019-06-26T14:48:31.007Z,15.67
2019-06-26T14:50:58.159Z,18.93
2019-06-26T14:53:25.933Z,19.53
2019-06-26T14:55:53.242Z,16.83
2019-06-26T14:58:20.304Z,15.70
2019-06-26T15:00:47.395Z,14.60
2019-06-26T15:03:14.455Z,15.47
2019-06-26T15:05:41.871Z,17.00
2019-06-26T15:08:08.937Z,18.77
2019-06-26T15:10:35.988Z,17.60
2019-06-26T15:13:03.251Z,17.30
2019-06-26T15:15:30.313Z,16.90
2019-06-26T15:17:57.583Z,17.17
2019-06-26T15:20:24.870Z,17.80
2019-06-26T15:22:51.968Z,18.00
2019-06-26T15:25:19.433Z,17.40
2019-06-26T15:27:46.759Z,18.37
2019-06-26T15:30:17.355Z,17.13
2019-06-26T15:32:44.652Z,13.93
2019-06-26T15:35:11.916Z,14.87
2019-06-26T15:37:39.081Z,14.17
2019-06-26T15:40:06.794Z,12.77
2019-06-26T15:42:34.235Z,13.50
2019-06-26T15:45:01.478Z,11.10
2019-06-26T15:47:28.550Z,10.97
2019-06-26T15:49:55.649Z,12.90
2019-06-26T15:52:22.796Z,11.30
2019-06-26T15:54:49.868Z,13.33
2019-06-26T15:57:16.975Z,11.90
2019-06-26T15:59:44.096Z,10.73
2019-06-26T16:02:11.252Z,14.10
2019-06-26T16:04:38.406Z,13.60
2019-06-26T16:07:05.936Z,12.03
2019-06-26T16:09:32.996Z,14.30
2019-06-26T16:12:00.187Z,14.83
2019-06-26T16:14:27.260Z,15.13
2019-06-26T16:16:56.893Z,16.60
2019-06-26T16:19:24.457Z,13.97
2019-06-26T16:21:51.629Z,13.63
2019-06-26T16:24:18.697Z,12.40
2019-06-26T16:26:45.919Z,11.17
2019-06-26T16:29:12.996Z,12.50
2019-06-26T16:31:40.072Z,10.80
2019-06-26T16:34:07.236Z,11.90
2019-06-26T16:36:34.424Z,12.43
2019-06-26T16:39:01.564Z,11.73
2019-06-26T16:41:29.120Z,11.47
2019-06-26T16:43:56.434Z,11.40
2019-06-26T16:46:23.776Z,12.80
2019-06-26T16:48:50.828Z,8.77
2019-06-26T16:51:17.886Z,12.13
2019-06-26T16:53:45.195Z,12.50
2019-06-26T16:56:12.264Z,10.73
2019-06-26T16:58:39.428Z,13.77
2019-06-26T17:01:06.598Z,10.70
2019-06-26T17:03:33.931Z,11.17
2019-06-26T17:06:01.100Z,11.93
2019-06-26T17:08:28.164Z,8.77
2019-06-26T17:10:55.335Z,12.27
2019-06-26T17:13:22.389Z,10.97
2019-06-26T17:15:49.559Z,15.43
2019-06-26T17:18:16.720Z,13.03
2019-06-26T17:20:43.786Z,13.77
2019-06-26T17:23:10.866Z,13.10
2019-06-26T17:25:37.925Z,10.27
2019-06-26T17:28:05.080Z,12.90
2019-06-26T17:30:32.145Z,14.03
2019-06-26T17:33:00.205Z,11.43
2019-06-26T17:35:27.501Z,13.10
2019-06-26T17:37:54.572Z,13.93
2019-06-26T17:40:21.839Z,15.03
2019-06-26T17:42:48.899Z,12.27
2019-06-26T17:45:16.978Z,13.10
2019-06-26T17:47:44.135Z,17.33
2019-06-26T17:50:11.387Z,11.93
2019-06-26T17:52:38.831Z,12.67
2019-06-26T17:55:06.707Z,14.13
2019-06-26T17:57:33.764Z,14.97
2019-06-26T18:00:01.211Z,12.20
2019-06-26T18:02:28.317Z,13.47
2019-06-26T18:04:55.380Z,10.63
2019-06-26T18:07:22.460Z,11.70
2019-06-26T18:09:49.526Z,14.00
2019-06-26T18:12:16.594Z,12.13
2019-06-26T18:14:43.652Z,12.87
2019-06-26T18:17:21.521Z,11.57
2019-06-26T18:19:39.710Z,11.33
2019-06-26T18:22:07.034Z,12.10
2019-06-26T18:24:34.113Z,11.37
2019-06-26T18:27:01.430Z,11.27
2019-06-26T18:29:28.550Z,7.87
2019-06-26T18:31:55.668Z,13.47
2019-06-26T18:34:22.756Z,7.27
2019-06-26T18:36:49.824Z,7.80
2019-06-26T18:39:16.991Z,9.87
2019-06-26T18:41:44.051Z,12.63
2019-06-26T18:44:12.118Z,8.70
2019-06-26T18:46:39.200Z,11.77
2019-06-26T18:49:06.280Z,7.97
2019-06-26T18:51:33.363Z,11.97
2019-06-26T18:54:01.184Z,7.63
2019-06-26T18:56:29.391Z,9.60
2019-06-26T18:58:56.443Z,6.67
2019-06-26T19:01:23.520Z,10.23
2019-06-26T19:03:50.577Z,8.97
2019-06-26T19:06:17.684Z,8.63
2019-06-26T19:08:44.816Z,9.63
2019-06-26T19:11:11.860Z,10.97
2019-06-26T19:13:38.938Z,9.27
2019-06-26T19:16:06.010Z,10.13
2019-06-26T19:18:33.172Z,13.30
2019-06-26T19:21:00.237Z,8.57
2019-06-26T19:23:27.292Z,11.97
2019-06-26T19:25:54.360Z,11.37
2019-06-26T19:28:23.165Z,11.80
2019-06-26T19:30:50.664Z,9.23
2019-06-26T19:33:18.021Z,9.70
2019-06-26T19:35:45.181Z,11.53
2019-06-26T19:38:12.370Z,13.67
2019-06-26T19:40:39.604Z,12.10
2019-06-26T19:43:06.761Z,11.87
2019-06-26T19:45:33.927Z,9.50
2019-06-26T19:48:01.092Z,8.83
2019-06-26T19:50:28.243Z,8.67
2019-06-26T19:52:55.648Z,11.60
2019-06-26T19:55:22.721Z,10.63
2019-06-26T19:57:49.888Z,11.97
2019-06-26T20:00:17.257Z,12.17
2019-06-26T20:02:44.417Z,10.30
2019-06-26T20:05:13.116Z,10.67
2019-06-26T20:07:40.189Z,7.50
2019-06-26T20:10:11.076Z,13.07
2019-06-26T20:12:38.153Z,13.67
2019-06-26T20:15:06.508Z,12.57
2019-06-26T20:17:33.635Z,9.70
2019-06-26T20:20:00.710Z,12.13
2019-06-26T20:22:28.860Z,11.67
2019-06-26T20:24:57.411Z,17.27
2019-06-26T20:27:24.695Z,10.47
2019-06-26T20:29:51.853Z,9.57
2019-06-26T20:32:18.907Z,11.37
2019-06-26T20:34:46.078Z,10.43
2019-06-26T20:37:13.147Z,10.97
2019-06-26T20:39:40.206Z,9.83
2019-06-26T20:42:07.493Z,9.17
2019-06-26T20:44:34.571Z,8.23
2019-06-26T20:47:01.617Z,12.53
2019-06-26T20:49:28.787Z,14.00
2019-06-26T20:51:55.844Z,11.07
2019-06-26T20:54:22.899Z,11.73
2019-06-26T20:56:49.952Z,10.63
2019-06-26T20:59:17.004Z,10.67
2019-06-26T21:01:44.088Z,7.83
2019-06-26T21:04:11.148Z,13.17
2019-06-26T21:06:38.337Z,7.80
2019-06-26T21:09:05.512Z,12.47
2019-06-26T21:11:34.036Z,9.77
2019-06-26T21:14:01.219Z,9.03
2019-06-26T21:16:28.549Z,11.00
2019-06-26T21:18:55.957Z,10.37
2019-06-26T21:21:23.027Z,9.23
2019-06-26T21:23:50.084Z,10.50
2019-06-26T21:26:17.176Z,9.80
2019-06-26T21:28:44.227Z,8.80
2019-06-26T21:31:11.282Z,11.73
2019-06-26T21:33:38.448Z,10.23
2019-06-26T21:36:05.513Z,8.07
2019-06-26T21:38:32.659Z,7.33
2019-06-26T21:40:59.945Z,9.37
2019-06-26T21:43:27.158Z,12.03
2019-06-26T21:45:54.316Z,8.33
2019-06-26T21:48:21.617Z,9.37
2019-06-26T21:50:48.704Z,8.13
2019-06-26T21:53:16.027Z,9.00
2019-06-26T21:56:01.641Z,13.57
2019-06-26T21:58:46.925Z,7.07
2019-06-26T22:01:32.456Z,11.07
2019-06-26T22:04:18.139Z,12.57
2019-06-26T22:07:03.572Z,7.67
2019-06-26T22:09:44.531Z,11.20
2019-06-26T22:12:11.781Z,11.13
2019-06-26T22:14:38.937Z,8.33
2019-06-26T22:17:07.209Z,9.83
2019-06-26T22:19:34.259Z,11.40
2019-06-26T22:22:01.579Z,8.87
2019-06-26T22:24:28.631Z,10.77
2019-06-26T22:26:55.687Z,11.57
2019-06-26T22:29:22.741Z,10.00
2019-06-26T22:31:50.880Z,7.97
2019-06-26T22:34:18.428Z,8.17
2019-06-26T22:36:51.747Z,9.67
2019-06-26T22:39:14.461Z,7.30
2019-06-26T22:41:41.547Z,12.27
2019-06-26T22:44:09.608Z,9.70
2019-06-26T22:46:37.688Z,10.87
2019-06-26T22:49:04.988Z,7.87
2019-06-26T22:51:32.052Z,10.87
2019-06-26T22:53:59.125Z,12.03
2019-06-26T22:56:26.264Z,10.67
2019-06-26T22:58:53.303Z,9.83
2019-06-26T23:01:20.379Z,9.63
2019-06-26T23:03:47.436Z,11.00
2019-06-26T23:06:14.494Z,10.97
2019-06-26T23:08:41.560Z,10.40
2019-06-26T23:11:08.726Z,9.60
2019-06-26T23:13:35.777Z,13.90
2019-06-26T23:16:03.037Z,13.10
2019-06-26T23:18:30.098Z,11.23
2019-06-26T23:20:57.272Z,10.83
2019-06-26T23:23:24.348Z,9.90
2019-06-26T23:25:51.518Z,10.83
2019-06-26T23:28:18.593Z,8.00
2019-06-26T23:30:45.755Z,12.47
2019-06-26T23:33:12.839Z,10.13
2019-06-26T23:35:39.895Z,9.97
2019-06-26T23:38:06.979Z,8.13
2019-06-26T23:40:34.031Z,10.00
2019-06-26T23:43:01.087Z,12.03
2019-06-26T23:45:28.143Z,9.33
2019-06-26T23:47:55.196Z,10.03
2019-06-26T23:50:22.489Z,9.50
2019-06-26T23:52:50.555Z,14.13
2019-06-26T23:55:17.820Z,12.60
2019-06-26T23:57:58.374Z,9.50
